createdAt,value
2023-05-15T00:00:17.812Z,10.30
2023-05-15T00:02:45.262Z,10.30
2023-05-15T00:05:14.032Z,10.20
2023-05-15T00:07:41.644Z,10.20
2023-05-15T00:10:09.224Z,10.10
2023-05-15T00:12:36.927Z,10.20
2023-05-15T00:15:04.431Z,10.20
2023-05-15T00:17:31.727Z,10.10
2023-05-15T00:19:59.906Z,10.10
2023-05-15T00:22:27.336Z,10.10
2023-05-15T00:24:54.716Z,10.10
2023-05-15T00:27:22.113Z,10.00
2023-05-15T00:29:49.428Z,10.00
2023-05-15T00:32:16.587Z,9.90
2023-05-15T00:34:43.776Z,9.90
2023-05-15T00:37:10.886Z,9.90
2023-05-15T00:39:38.150Z,10.00
2023-05-15T00:42:06.716Z,10.00
2023-05-15T00:44:34.570Z,10.00
2023-05-15T00:47:02.887Z,10.00
2023-05-15T00:49:30.297Z,10.00
2023-05-15T00:51:58.313Z,10.00
2023-05-15T00:54:25.619Z,9.90
2023-05-15T00:56:56.325Z,9.90
2023-05-15T00:59:26.074Z,9.80
2023-05-15T01:01:53.344Z,9.70
2023-05-15T01:04:21.437Z,9.80
2023-05-15T01:06:49.075Z,9.80
2023-05-15T01:09:16.745Z,9.70
2023-05-15T01:11:47.102Z,9.60
2023-05-15T01:14:14.458Z,9.50
2023-05-15T01:16:41.717Z,9.50
2023-05-15T01:19:08.835Z,9.60
2023-05-15T01:21:36.494Z,9.70
2023-05-15T01:24:27.889Z,9.70
2023-05-15T01:27:21.106Z,9.70
2023-05-15T01:29:55.153Z,9.60
2023-05-15T01:32:32.390Z,9.70
2023-05-15T01:35:07.642Z,9.70
2023-05-15T01:37:37.248Z,9.80
2023-05-15T01:40:10.362Z,9.90
2023-05-15T01:42:42.705Z,9.90
2023-05-15T01:45:11.860Z,9.90
2023-05-15T01:47:44.005Z,10.00
2023-05-15T01:50:15.367Z,10.00
2023-05-15T01:52:48.077Z,10.00
2023-05-15T01:55:16.464Z,10.10
2023-05-15T01:57:46.815Z,10.10
2023-05-15T02:00:15.035Z,10.20
2023-05-15T02:02:43.300Z,10.20
2023-05-15T02:05:10.523Z,10.20
2023-05-15T02:07:38.284Z,10.10
2023-05-15T02:10:06.386Z,10.10
2023-05-15T02:12:34.672Z,10.20
2023-05-15T02:15:03.501Z,10.10
2023-05-15T02:17:31.176Z,10.10
2023-05-15T02:19:58.421Z,10.10
2023-05-15T02:22:25.987Z,10.10
2023-05-15T02:24:53.360Z,10.20
2023-05-15T02:27:28.493Z,10.10
2023-05-15T02:30:23.580Z,10.20
2023-05-15T02:32:54.456Z,10.20
2023-05-15T02:35:39.821Z,10.10
2023-05-15T02:38:13.001Z,10.10
2023-05-15T02:40:40.525Z,10.10
2023-05-15T02:43:10.405Z,10.00
2023-05-15T02:45:38.028Z,9.90
2023-05-15T02:48:05.571Z,10.00
2023-05-15T02:50:32.702Z,9.90
2023-05-15T02:53:07.323Z,10.00
2023-05-15T02:55:34.554Z,9.90
2023-05-15T02:58:02.548Z,10.00
2023-05-15T03:00:29.937Z,10.00
2023-05-15T03:02:57.131Z,9.90
2023-05-15T03:05:24.503Z,9.90
2023-05-15T03:07:51.980Z,9.90
2023-05-15T03:10:19.029Z,10.00
2023-05-15T03:12:46.180Z,10.00
2023-05-15T03:15:13.560Z,10.00
2023-05-15T03:17:40.655Z,9.90
2023-05-15T03:20:09.070Z,10.00
2023-05-15T03:22:36.203Z,10.00
2023-05-15T03:25:03.337Z,10.00
2023-05-15T03:27:30.709Z,10.00
2023-05-15T03:29:58.323Z,10.00
2023-05-15T03:32:25.598Z,10.10
2023-05-15T03:34:52.692Z,10.00
2023-05-15T03:37:19.794Z,10.00
2023-05-15T03:39:47.115Z,9.90
2023-05-15T03:42:14.091Z,9.80
2023-05-15T03:44:41.334Z,9.80
2023-05-15T03:47:08.416Z,9.80
2023-05-15T03:49:35.559Z,9.80
2023-05-15T03:52:02.672Z,9.80
2023-05-15T03:54:30.379Z,9.70
2023-05-15T03:56:57.929Z,9.80
2023-05-15T03:59:25.053Z,9.80
2023-05-15T04:02:03.606Z,9.80
2023-05-15T04:04:32.388Z,9.80
2023-05-15T04:07:00.172Z,9.90
2023-05-15T04:09:27.387Z,9.90
2023-05-15T04:11:54.380Z,9.90
2023-05-15T04:14:21.427Z,9.90
2023-05-15T04:16:48.576Z,9.90
2023-05-15T04:19:15.680Z,9.90
2023-05-15T04:21:42.735Z,10.00
2023-05-15T04:24:10.077Z,10.00
2023-05-15T04:26:37.198Z,10.10
2023-05-15T04:29:04.997Z,10.10
2023-05-15T04:31:32.635Z,10.20
2023-05-15T04:34:00.050Z,10.20
2023-05-15T04:36:27.631Z,10.30
2023-05-15T04:38:54.737Z,10.30
2023-05-15T04:41:22.271Z,10.40
2023-05-15T04:43:49.513Z,10.40
2023-05-15T04:46:16.722Z,10.50
2023-05-15T04:48:44.099Z,10.50
2023-05-15T04:51:11.999Z,10.50
2023-05-15T04:53:39.097Z,10.50
2023-05-15T04:56:06.236Z,10.50
2023-05-15T04:58:33.486Z,10.50
2023-05-15T05:01:03.512Z,10.50
2023-05-15T05:03:31.340Z,10.70
2023-05-15T05:05:58.710Z,10.70
2023-05-15T05:08:25.962Z,10.80
2023-05-15T05:10:57.582Z,10.80
2023-05-15T05:13:24.598Z,10.80
2023-05-15T05:15:51.660Z,10.90
2023-05-15T05:18:18.803Z,11.00
2023-05-15T05:20:45.812Z,11.10
2023-05-15T05:23:15.005Z,11.00
2023-05-15T05:25:42.514Z,11.10
2023-05-15T05:28:09.579Z,11.10
2023-05-15T05:30:36.736Z,11.00
2023-05-15T05:33:04.028Z,11.10
2023-05-15T05:35:31.609Z,11.20
2023-05-15T05:37:58.647Z,11.40
2023-05-15T05:40:25.958Z,11.40
2023-05-15T05:42:53.072Z,11.40
2023-05-15T05:45:20.172Z,11.50
2023-05-15T05:47:47.369Z,11.50
2023-05-15T05:50:14.489Z,11.60
2023-05-15T05:52:41.461Z,11.80
2023-05-15T05:55:08.845Z,11.80
2023-05-15T05:57:36.134Z,12.00
2023-05-15T06:00:05.632Z,12.10
2023-05-15T06:02:33.039Z,12.20
2023-05-15T06:05:00.232Z,12.30
2023-05-15T06:07:28.274Z,12.40
2023-05-15T06:09:55.348Z,12.50
2023-05-15T06:12:23.202Z,12.60
2023-05-15T06:14:50.253Z,12.70
2023-05-15T06:17:17.219Z,12.80
2023-05-15T06:19:44.207Z,12.90
2023-05-15T06:22:11.956Z,12.90
2023-05-15T06:24:39.144Z,12.90
2023-05-15T06:27:06.258Z,12.90
2023-05-15T06:29:33.546Z,13.00
2023-05-15T06:32:01.063Z,13.00
2023-05-15T06:34:28.481Z,13.00
2023-05-15T06:36:55.792Z,13.10
2023-05-15T06:39:22.876Z,13.10
2023-05-15T06:41:50.123Z,13.10
2023-05-15T06:44:17.242Z,13.20
2023-05-15T06:46:44.323Z,13.20
2023-05-15T06:49:11.640Z,13.30
2023-05-15T06:51:38.748Z,13.40
2023-05-15T06:54:05.797Z,13.40
2023-05-15T06:56:32.896Z,13.40
2023-05-15T06:58:59.870Z,13.40
2023-05-15T07:01:27.225Z,13.40
2023-05-15T07:03:54.646Z,13.60
2023-05-15T07:06:21.776Z,13.50
2023-05-15T07:08:49.004Z,13.60
2023-05-15T07:11:16.010Z,13.70
2023-05-15T07:13:43.071Z,13.80
2023-05-15T07:16:10.024Z,13.90
2023-05-15T07:18:37.522Z,14.00
2023-05-15T07:21:04.861Z,14.10
2023-05-15T07:23:32.088Z,14.10
2023-05-15T07:25:59.223Z,14.20
2023-05-15T07:28:26.236Z,14.30
2023-05-15T07:30:53.769Z,14.30
2023-05-15T07:33:20.963Z,14.30
2023-05-15T07:35:48.107Z,14.50
2023-05-15T07:38:15.103Z,14.50
2023-05-15T07:40:42.166Z,14.60
2023-05-15T07:43:09.410Z,14.70
2023-05-15T07:45:36.746Z,14.90
2023-05-15T07:48:24.560Z,15.10
2023-05-15T07:50:52.416Z,15.20
2023-05-15T07:53:19.867Z,15.20
2023-05-15T07:55:47.180Z,15.40
2023-05-15T07:58:14.594Z,15.70
2023-05-15T08:00:42.075Z,15.90
2023-05-15T08:03:09.454Z,16.00
2023-05-15T08:05:36.924Z,15.90
2023-05-15T08:08:04.128Z,16.00
2023-05-15T08:10:31.133Z,16.20
2023-05-15T08:12:58.128Z,16.40
2023-05-15T08:15:25.523Z,16.80
2023-05-15T08:17:52.711Z,17.20
2023-05-15T08:20:19.860Z,17.60
2023-05-15T08:22:46.917Z,18.10
2023-05-15T08:25:13.950Z,18.40
2023-05-15T08:27:41.219Z,18.70
2023-05-15T08:30:08.984Z,18.40
2023-05-15T08:32:36.100Z,18.30
2023-05-15T08:35:03.322Z,18.50
2023-05-15T08:37:30.770Z,18.80
2023-05-15T08:39:57.978Z,19.30
2023-05-15T08:42:34.273Z,19.60
2023-05-15T08:45:02.014Z,19.80
2023-05-15T08:47:31.806Z,19.70
2023-05-15T08:50:05.206Z,19.80
2023-05-15T08:52:33.899Z,20.10
2023-05-15T08:55:01.613Z,20.20
2023-05-15T08:57:29.299Z,20.60
2023-05-15T08:59:57.748Z,20.80
2023-05-15T09:02:26.381Z,20.60
2023-05-15T09:04:53.546Z,20.60
2023-05-15T09:07:20.725Z,20.80
2023-05-15T09:09:48.032Z,20.50
2023-05-15T09:12:16.332Z,20.50
2023-05-15T09:14:44.185Z,20.90
2023-05-15T09:17:12.147Z,21.30
2023-05-15T09:19:43.163Z,21.50
2023-05-15T09:22:18.530Z,21.80
2023-05-15T09:24:48.405Z,22.00
2023-05-15T09:27:15.562Z,21.70
2023-05-15T09:29:42.741Z,21.50
2023-05-15T09:32:11.818Z,21.30
2023-05-15T09:34:44.408Z,21.30
2023-05-15T09:37:28.056Z,21.30
2023-05-15T09:39:55.323Z,21.30
2023-05-15T09:42:24.788Z,21.30
2023-05-15T09:44:51.820Z,21.30
2023-05-15T09:47:20.089Z,21.30
2023-05-15T09:49:47.759Z,21.10
2023-05-15T09:52:16.364Z,21.10
2023-05-15T09:54:48.169Z,20.90
2023-05-15T09:57:22.489Z,20.80
2023-05-15T09:59:49.901Z,20.40
2023-05-15T10:02:35.356Z,19.90
2023-05-15T10:05:03.054Z,19.70
2023-05-15T10:07:36.261Z,19.40
2023-05-15T10:10:05.380Z,19.40
2023-05-15T10:12:34.112Z,19.60
2023-05-15T10:15:02.999Z,19.70
2023-05-15T10:17:34.734Z,19.90
2023-05-15T10:20:02.870Z,20.00
2023-05-15T10:22:32.515Z,20.00
2023-05-15T10:25:15.851Z,20.00
2023-05-15T10:27:43.426Z,20.00
2023-05-15T10:30:12.068Z,19.70
2023-05-15T10:32:42.042Z,19.20
2023-05-15T10:35:12.409Z,18.50
2023-05-15T10:37:40.209Z,17.90
2023-05-15T10:40:10.477Z,17.80
2023-05-15T10:42:43.327Z,17.60
2023-05-15T10:45:11.557Z,17.60
2023-05-15T10:47:41.176Z,17.60
2023-05-15T10:50:08.943Z,17.70
2023-05-15T10:52:39.951Z,18.00
2023-05-15T10:55:15.191Z,18.30
2023-05-15T10:57:42.690Z,18.70
2023-05-15T11:00:22.093Z,19.10
2023-05-15T11:02:51.039Z,19.50
2023-05-15T11:05:18.133Z,19.80
2023-05-15T11:08:05.340Z,20.10
2023-05-15T11:10:36.434Z,20.40
2023-05-15T11:13:04.530Z,20.70
2023-05-15T11:15:45.161Z,20.80
2023-05-15T11:18:12.835Z,21.00
2023-05-15T11:20:50.727Z,20.90
2023-05-15T11:23:21.945Z,20.80
2023-05-15T11:25:58.241Z,20.70
2023-05-15T11:28:29.309Z,20.80
2023-05-15T11:31:07.127Z,20.70
2023-05-15T11:33:34.533Z,20.70
2023-05-15T11:36:04.900Z,20.70
2023-05-15T11:38:37.973Z,20.70
2023-05-15T11:41:18.464Z,20.20
2023-05-15T11:43:46.562Z,19.70
2023-05-15T11:46:15.100Z,19.30
2023-05-15T11:48:44.607Z,18.90
2023-05-15T11:51:23.044Z,18.60
2023-05-15T11:53:51.793Z,18.30
2023-05-15T11:56:25.094Z,18.50
2023-05-15T11:58:58.428Z,19.00
2023-05-15T12:01:26.152Z,19.30
2023-05-15T12:03:54.780Z,19.50
2023-05-15T12:06:23.063Z,19.60
2023-05-15T12:08:52.713Z,19.60
2023-05-15T12:11:23.914Z,19.90
2023-05-15T12:13:55.081Z,20.10
2023-05-15T12:16:28.807Z,20.40
2023-05-15T12:18:58.939Z,20.70
2023-05-15T12:21:29.002Z,20.80
2023-05-15T12:26:27.741Z,20.80
2023-05-15T12:28:55.836Z,20.70
2023-05-15T12:31:23.062Z,20.80
2023-05-15T12:33:50.470Z,20.80
2023-05-15T12:36:21.239Z,21.20
2023-05-15T12:38:49.375Z,21.60
2023-05-15T12:41:16.696Z,22.00
2023-05-15T12:43:44.125Z,22.20
2023-05-15T12:46:14.137Z,22.10
2023-05-15T12:48:41.257Z,22.10
2023-05-15T12:51:09.038Z,22.20
2023-05-15T12:53:38.865Z,22.60
2023-05-15T12:56:06.230Z,22.80
2023-05-15T12:58:34.002Z,23.20
2023-05-15T13:01:03.306Z,23.60
2023-05-15T13:03:31.978Z,23.90
2023-05-15T13:05:59.239Z,24.30
2023-05-15T13:08:26.414Z,24.60
2023-05-15T13:10:58.096Z,24.80
2023-05-15T13:13:38.782Z,24.70
2023-05-15T13:16:08.230Z,24.70
2023-05-15T13:18:36.686Z,24.60
2023-05-15T13:21:04.204Z,24.80
2023-05-15T13:23:31.337Z,24.90
2023-05-15T13:25:58.660Z,25.00
2023-05-15T13:28:25.939Z,25.10
2023-05-15T13:30:52.934Z,24.80
2023-05-15T13:33:19.932Z,24.40
2023-05-15T13:38:31.441Z,24.50
2023-05-15T13:40:58.765Z,24.60
2023-05-15T13:43:26.737Z,24.70
2023-05-15T13:45:54.512Z,24.90
2023-05-15T13:48:21.739Z,25.10
2023-05-15T13:50:48.964Z,24.70
2023-05-15T13:53:17.232Z,24.20
2023-05-15T13:55:45.292Z,24.10
2023-05-15T13:58:13.181Z,23.80
2023-05-15T14:00:42.696Z,23.40
2023-05-15T14:03:11.181Z,23.10
2023-05-15T14:05:39.858Z,23.10
2023-05-15T14:08:07.144Z,22.90
2023-05-15T14:10:35.982Z,22.50
2023-05-15T14:13:03.094Z,22.10
2023-05-15T14:15:30.265Z,21.70
2023-05-15T14:17:57.858Z,21.80
2023-05-15T14:20:25.485Z,21.90
2023-05-15T14:22:52.722Z,21.80
2023-05-15T14:25:19.953Z,21.80
2023-05-15T14:27:47.607Z,21.60
2023-05-15T14:30:15.079Z,21.30
2023-05-15T14:32:42.422Z,20.80
2023-05-15T14:35:09.648Z,20.40
2023-05-15T14:37:37.647Z,20.30
2023-05-15T14:40:05.400Z,20.10
2023-05-15T14:42:32.586Z,20.10
2023-05-15T14:44:59.846Z,20.10
2023-05-15T14:47:28.656Z,20.20
2023-05-15T14:49:55.955Z,20.40
2023-05-15T14:52:23.326Z,20.70
2023-05-15T14:55:00.583Z,21.00
2023-05-15T14:57:35.917Z,21.10
2023-05-15T15:00:04.749Z,21.50
2023-05-15T15:02:32.041Z,21.70
2023-05-15T15:04:59.653Z,21.80
2023-05-15T15:07:29.921Z,21.80
2023-05-15T15:09:57.404Z,21.40
2023-05-15T15:12:24.510Z,20.60
2023-05-15T15:14:51.767Z,19.70
2023-05-15T15:17:18.984Z,18.50
2023-05-15T15:19:46.469Z,17.90
2023-05-15T15:22:13.545Z,17.70
2023-05-15T15:24:40.710Z,17.70
2023-05-15T15:27:07.843Z,17.60
2023-05-15T15:29:34.993Z,17.90
2023-05-15T15:32:02.342Z,18.50
2023-05-15T15:34:29.720Z,19.00
2023-05-15T15:36:56.948Z,19.40
2023-05-15T15:39:24.039Z,19.50
2023-05-15T15:41:51.128Z,19.60
2023-05-15T15:44:18.231Z,19.60
2023-05-15T15:46:45.540Z,19.50
2023-05-15T15:49:15.790Z,19.20
2023-05-15T15:51:42.874Z,18.40
2023-05-15T15:54:09.980Z,17.80
2023-05-15T15:56:37.272Z,17.70
2023-05-15T15:59:04.360Z,17.30
2023-05-15T16:01:31.601Z,17.00
2023-05-15T16:03:58.733Z,16.60
2023-05-15T16:06:25.949Z,16.00
2023-05-15T16:08:53.001Z,16.10
2023-05-15T16:11:20.099Z,16.30
2023-05-15T16:13:47.223Z,16.70
2023-05-15T16:16:14.329Z,17.10
2023-05-15T16:18:41.710Z,17.20
2023-05-15T16:21:09.208Z,17.30
2023-05-15T16:23:37.467Z,17.10
2023-05-15T16:26:05.680Z,16.80
2023-05-15T16:28:32.940Z,16.40
2023-05-15T16:31:00.605Z,16.20
2023-05-15T16:33:28.760Z,16.10
2023-05-15T16:35:55.814Z,16.10
2023-05-15T16:38:23.265Z,16.00
2023-05-15T16:40:50.680Z,15.90
2023-05-15T16:43:17.870Z,15.70
2023-05-15T16:45:44.972Z,15.40
2023-05-15T16:48:12.107Z,15.00
2023-05-15T16:50:39.217Z,14.90
2023-05-15T16:53:07.390Z,14.90
2023-05-15T16:55:34.802Z,15.00
2023-05-15T16:58:01.966Z,14.80
2023-05-15T17:00:29.186Z,14.70
2023-05-15T17:02:56.604Z,14.70
2023-05-15T17:05:23.820Z,14.60
2023-05-15T17:07:51.060Z,14.70
2023-05-15T17:10:18.172Z,14.80
2023-05-15T17:12:45.371Z,14.70
2023-05-15T17:15:13.268Z,14.60
2023-05-15T17:17:40.622Z,14.50
2023-05-15T17:20:08.520Z,14.50
2023-05-15T17:22:35.595Z,14.50
2023-05-15T17:25:02.861Z,14.60
2023-05-15T17:27:30.859Z,14.60
2023-05-15T17:29:58.245Z,14.40
2023-05-15T17:32:25.810Z,14.20
2023-05-15T17:34:53.214Z,14.10
2023-05-15T17:37:20.402Z,14.20
2023-05-15T17:39:47.454Z,14.10
2023-05-15T17:42:14.595Z,14.20
2023-05-15T17:44:41.603Z,14.10
2023-05-15T17:47:10.261Z,14.10
2023-05-15T17:49:39.036Z,14.20
2023-05-15T17:52:07.606Z,14.30
2023-05-15T17:54:34.776Z,14.50
2023-05-15T17:57:02.056Z,14.40
2023-05-15T17:59:31.111Z,14.30
2023-05-15T18:01:59.325Z,14.30
2023-05-15T18:04:26.708Z,14.20
2023-05-15T18:06:54.053Z,14.30
2023-05-15T18:09:23.346Z,14.50
2023-05-15T18:11:51.227Z,14.60
2023-05-15T18:14:18.309Z,14.70
2023-05-15T18:16:45.383Z,14.80
2023-05-15T18:19:12.755Z,14.80
2023-05-15T18:21:39.930Z,14.90
2023-05-15T18:24:07.280Z,15.00
2023-05-15T18:26:34.533Z,15.00
2023-05-15T18:29:02.085Z,14.90
2023-05-15T18:31:29.364Z,14.80
2023-05-15T18:33:56.686Z,14.70
2023-05-15T18:36:23.993Z,14.70
2023-05-15T18:38:51.455Z,14.70
2023-05-15T18:41:18.557Z,14.60
2023-05-15T18:43:45.628Z,14.50
2023-05-15T18:46:12.712Z,14.40
2023-05-15T18:48:58.650Z,14.30
2023-05-15T18:51:25.931Z,14.10
2023-05-15T18:53:53.156Z,13.90
2023-05-15T18:56:20.356Z,13.80
2023-05-15T18:58:47.546Z,13.70
2023-05-15T19:01:14.806Z,13.60
2023-05-15T19:03:42.193Z,13.50
2023-05-15T19:06:09.380Z,13.50
2023-05-15T19:08:36.399Z,13.40
2023-05-15T19:11:03.581Z,13.20
2023-05-15T19:13:32.950Z,13.20
2023-05-15T19:15:59.982Z,13.20
2023-05-15T19:18:27.473Z,13.10
2023-05-15T19:20:54.855Z,13.00
2023-05-15T19:23:22.079Z,13.00
2023-05-15T19:25:49.392Z,12.90
2023-05-15T19:28:16.637Z,12.80
2023-05-15T19:30:44.157Z,12.80
2023-05-15T19:33:12.930Z,12.80
2023-05-15T19:35:40.739Z,12.80
2023-05-15T19:38:08.042Z,12.70
2023-05-15T19:40:38.209Z,12.50
2023-05-15T19:43:05.428Z,12.40
2023-05-15T19:45:32.486Z,12.30
2023-05-15T19:48:00.572Z,12.30
2023-05-15T19:50:27.955Z,12.30
2023-05-15T19:52:55.165Z,12.30
2023-05-15T19:55:22.191Z,12.40
2023-05-15T19:57:49.535Z,12.30
2023-05-15T20:00:16.990Z,12.20
2023-05-15T20:02:44.648Z,12.20
2023-05-15T20:05:11.749Z,12.30
2023-05-15T20:07:38.812Z,12.20
2023-05-15T20:10:06.861Z,12.30
2023-05-15T20:12:34.015Z,12.20
2023-05-15T20:15:01.237Z,12.10
2023-05-15T20:17:28.399Z,12.10
2023-05-15T20:19:59.042Z,12.10
2023-05-15T20:22:26.203Z,12.10
2023-05-15T20:24:53.306Z,12.20
2023-05-15T20:27:20.428Z,12.30
2023-05-15T20:29:47.825Z,12.30
2023-05-15T20:32:15.339Z,12.40
2023-05-15T20:34:47.704Z,12.30
2023-05-15T20:37:16.387Z,12.30
2023-05-15T20:39:43.357Z,12.30
2023-05-15T20:42:10.469Z,12.30
2023-05-15T20:44:39.464Z,12.30
2023-05-15T20:47:06.697Z,12.30
2023-05-15T20:49:33.935Z,12.30
2023-05-15T20:52:01.219Z,12.10
2023-05-15T20:54:28.464Z,12.10
2023-05-15T20:56:55.627Z,12.10
2023-05-15T20:59:22.939Z,12.20
2023-05-15T21:01:50.318Z,12.30
2023-05-15T21:04:17.835Z,12.30
2023-05-15T21:06:45.717Z,12.30
2023-05-15T21:09:16.654Z,12.30
2023-05-15T21:11:43.702Z,12.30
2023-05-15T21:14:10.879Z,12.20
2023-05-15T21:16:38.131Z,12.20
2023-05-15T21:19:05.305Z,12.20
2023-05-15T21:21:32.675Z,12.10
2023-05-15T21:24:01.898Z,12.10
2023-05-15T21:26:29.443Z,12.10
2023-05-15T21:28:59.181Z,12.10
2023-05-15T21:31:27.309Z,12.00
2023-05-15T21:33:55.477Z,12.00
2023-05-15T21:36:22.957Z,12.00
2023-05-15T21:38:50.202Z,12.00
2023-05-15T21:41:17.618Z,11.90
2023-05-15T21:43:44.940Z,11.80
2023-05-15T21:46:12.049Z,11.80
2023-05-15T21:48:39.317Z,11.80
2023-05-15T21:51:06.389Z,11.90
2023-05-15T21:53:33.823Z,12.00
2023-05-15T21:56:02.072Z,12.00
2023-05-15T21:58:29.339Z,11.90
2023-05-15T22:00:56.463Z,11.90
2023-05-15T22:03:23.968Z,11.90
2023-05-15T22:05:52.822Z,11.80
2023-05-15T22:08:20.464Z,11.90
2023-05-15T22:10:48.601Z,11.90
2023-05-15T22:13:15.750Z,12.00
2023-05-15T22:15:42.999Z,12.00
2023-05-15T22:18:10.297Z,12.00
2023-05-15T22:20:37.982Z,12.00
2023-05-15T22:23:06.175Z,12.00
2023-05-15T22:25:33.256Z,11.90
2023-05-15T22:28:00.693Z,11.90
2023-05-15T22:30:29.144Z,11.80
2023-05-15T22:32:56.498Z,11.70
2023-05-15T22:35:23.755Z,11.70
2023-05-15T22:37:51.119Z,11.70
2023-05-15T22:40:18.473Z,11.70
2023-05-15T22:42:50.101Z,11.70
2023-05-15T22:45:18.587Z,11.70
2023-05-15T22:47:46.281Z,11.70
2023-05-15T22:50:13.902Z,11.80
2023-05-15T22:52:41.080Z,11.70
2023-05-15T22:55:10.385Z,11.70
2023-05-15T22:57:37.555Z,11.60
2023-05-15T23:00:06.979Z,11.50
2023-05-15T23:02:34.593Z,11.50
2023-05-15T23:05:02.204Z,11.60
2023-05-15T23:07:29.320Z,11.60
2023-05-15T23:09:56.431Z,11.60
2023-05-15T23:12:23.659Z,11.60
2023-05-15T23:14:50.800Z,11.50
2023-05-15T23:17:17.930Z,11.50
2023-05-15T23:19:45.091Z,11.60
2023-05-15T23:22:12.565Z,11.60
2023-05-15T23:24:39.935Z,11.60
2023-05-15T23:27:07.981Z,11.50
2023-05-15T23:29:35.017Z,11.50
2023-05-15T23:32:02.613Z,11.40
2023-05-15T23:34:30.084Z,11.30
2023-05-15T23:36:57.397Z,11.30
2023-05-15T23:39:24.449Z,11.30
2023-05-15T23:41:51.726Z,11.30
2023-05-15T23:44:18.991Z,11.20
2023-05-15T23:46:46.161Z,11.30
2023-05-15T23:49:13.465Z,11.30
2023-05-15T23:51:40.788Z,11.30
2023-05-15T23:54:08.067Z,11.30
2023-05-15T23:56:35.346Z,11.40
2023-05-15T23:59:02.505Z,11.30
